Current Weather

Ocean County

Toms River, New Jersey (KMJX)

Report from: Tuesday, May 21, 2024 11:56 AM EDT
Current time: Tuesday, May 21, 2024 1:02 PM EDT

Nearby weather – Weather history – Daily summaries
Weather forecast

Temperature26.1°C (79.0°F)
Dew point16.7°C (62.1°F)
Winds 6 kts (3.1 m/s, 6.9 mph) West-Northwest (290°)
Visibility10 mi. (16.1 km)
Clouds Sky clear
Altimeter30.02 in.Hg (1017 mB)
Relative humidity56 %
Density altitude1,421 ft. (433 m)
Sea-level pressure101.7 kPa (1017 mB, 30.03 in.Hg)
Remarks Fully automated report
Automated weather observing station with precipitation discriminator
Flight conditions Visual Meteorological Conditions
Raw dataKMJX 211556Z AUTO 29006KT 10SM CLR 26/17 A3002 RMK AO2 SLP169 T02610167
An error has occurred. This application may no longer respond until reloaded. Reload 🗙